sensor_id;sensor_type;location;lat;lon;timestamp;P1;durP1;ratioP1;P2;durP2;ratioP2
53646;SDS011;39550;52.230;5.194;2024-03-29T00:00:39;4.22;;;1.75;;
53646;SDS011;39550;52.230;5.194;2024-03-29T00:03:05;2.50;;;1.55;;
53646;SDS011;39550;52.230;5.194;2024-03-29T00:05:30;3.75;;;1.70;;
53646;SDS011;39550;52.230;5.194;2024-03-29T00:07:55;4.28;;;1.75;;
53646;SDS011;39550;52.230;5.194;2024-03-29T00:10:21;4.75;;;1.90;;
53646;SDS011;39550;52.230;5.194;2024-03-29T00:12:46;3.17;;;1.70;;
53646;SDS011;39550;52.230;5.194;2024-03-29T00:15:11;4.57;;;2.42;;
53646;SDS011;39550;52.230;5.194;2024-03-29T00:17:37;4.78;;;2.00;;
53646;SDS011;39550;52.230;5.194;2024-03-29T00:20:02;4.35;;;1.88;;
53646;SDS011;39550;52.230;5.194;2024-03-29T00:22:28;8.05;;;1.70;;
53646;SDS011;39550;52.230;5.194;2024-03-29T00:24:54;4.13;;;1.70;;
53646;SDS011;39550;52.230;5.194;2024-03-29T00:27:19;6.28;;;2.08;;
53646;SDS011;39550;52.230;5.194;2024-03-29T00:29:44;5.22;;;1.80;;
53646;SDS011;39550;52.230;5.194;2024-03-29T00:32:12;3.10;;;1.90;;
53646;SDS011;39550;52.230;5.194;2024-03-29T00:34:37;4.38;;;1.67;;
53646;SDS011;39550;52.230;5.194;2024-03-29T00:37:02;3.88;;;1.77;;
53646;SDS011;39550;52.230;5.194;2024-03-29T00:39:29;3.58;;;1.92;;
53646;SDS011;39550;52.230;5.194;2024-03-29T00:41:54;5.30;;;2.20;;
53646;SDS011;39550;52.230;5.194;2024-03-29T00:44:19;4.25;;;1.80;;
53646;SDS011;39550;52.230;5.194;2024-03-29T00:46:45;4.63;;;2.00;;
53646;SDS011;39550;52.230;5.194;2024-03-29T00:49:10;4.93;;;1.80;;
53646;SDS011;39550;52.230;5.194;2024-03-29T00:51:35;3.25;;;1.60;;
53646;SDS011;39550;52.230;5.194;2024-03-29T00:54:01;4.32;;;1.70;;
53646;SDS011;39550;52.230;5.194;2024-03-29T00:56:26;6.15;;;2.10;;
53646;SDS011;39550;52.230;5.194;2024-03-29T00:58:51;4.35;;;1.75;;
53646;SDS011;39550;52.230;5.194;2024-03-29T01:01:17;5.05;;;1.70;;
53646;SDS011;39550;52.230;5.194;2024-03-29T01:03:42;3.53;;;1.70;;
53646;SDS011;39550;52.230;5.194;2024-03-29T01:06:07;4.45;;;1.63;;
53646;SDS011;39550;52.230;5.194;2024-03-29T01:08:33;4.68;;;1.77;;
53646;SDS011;39550;52.230;5.194;2024-03-29T01:10:58;2.78;;;1.52;;
53646;SDS011;39550;52.230;5.194;2024-03-29T01:13:23;2.92;;;1.52;;
53646;SDS011;39550;52.230;5.194;2024-03-29T01:15:49;5.07;;;2.78;;
53646;SDS011;39550;52.230;5.194;2024-03-29T01:18:14;4.45;;;1.80;;
53646;SDS011;39550;52.230;5.194;2024-03-29T01:20:39;4.70;;;1.80;;
53646;SDS011;39550;52.230;5.194;2024-03-29T01:23:05;3.70;;;1.73;;
53646;SDS011;39550;52.230;5.194;2024-03-29T01:25:30;4.63;;;2.35;;
53646;SDS011;39550;52.230;5.194;2024-03-29T01:27:56;4.53;;;1.95;;
53646;SDS011;39550;52.230;5.194;2024-03-29T01:30:21;5.40;;;2.05;;
53646;SDS011;39550;52.230;5.194;2024-03-29T01:32:46;3.17;;;1.60;;
53646;SDS011;39550;52.230;5.194;2024-03-29T01:35:12;5.25;;;1.70;;
53646;SDS011;39550;52.230;5.194;2024-03-29T01:37:37;4.47;;;1.80;;
53646;SDS011;39550;52.230;5.194;2024-03-29T01:40:04;4.20;;;1.70;;
53646;SDS011;39550;52.230;5.194;2024-03-29T01:42:29;3.65;;;1.50;;
53646;SDS011;39550;52.230;5.194;2024-03-29T01:44:55;3.95;;;1.73;;
53646;SDS011;39550;52.230;5.194;2024-03-29T01:47:20;3.20;;;1.70;;
53646;SDS011;39550;52.230;5.194;2024-03-29T01:49:45;5.53;;;1.90;;
53646;SDS011;39550;52.230;5.194;2024-03-29T01:52:11;4.55;;;1.80;;
53646;SDS011;39550;52.230;5.194;2024-03-29T01:54:38;4.47;;;1.83;;
53646;SDS011;39550;52.230;5.194;2024-03-29T01:57:04;7.40;;;2.03;;
53646;SDS011;39550;52.230;5.194;2024-03-29T01:59:30;3.92;;;1.80;;
53646;SDS011;39550;52.230;5.194;2024-03-29T02:01:57;3.40;;;1.73;;
53646;SDS011;39550;52.230;5.194;2024-03-29T02:04:23;4.60;;;1.75;;
53646;SDS011;39550;52.230;5.194;2024-03-29T02:06:49;7.78;;;1.80;;
53646;SDS011;39550;52.230;5.194;2024-03-29T02:09:14;5.90;;;1.88;;
53646;SDS011;39550;52.230;5.194;2024-03-29T02:11:40;4.07;;;2.40;;
53646;SDS011;39550;52.230;5.194;2024-03-29T02:14:05;3.95;;;2.45;;
53646;SDS011;39550;52.230;5.194;2024-03-29T02:16:31;3.92;;;1.70;;
53646;SDS011;39550;52.230;5.194;2024-03-29T02:18:56;3.67;;;1.73;;
53646;SDS011;39550;52.230;5.194;2024-03-29T02:21:22;5.22;;;1.70;;
53646;SDS011;39550;52.230;5.194;2024-03-29T02:23:47;3.25;;;1.45;;
53646;SDS011;39550;52.230;5.194;2024-03-29T02:26:21;6.00;;;2.08;;
53646;SDS011;39550;52.230;5.194;2024-03-29T02:28:49;3.90;;;1.70;;
53646;SDS011;39550;52.230;5.194;2024-03-29T02:31:15;3.70;;;1.73;;
53646;SDS011;39550;52.230;5.194;2024-03-29T02:33:40;3.13;;;1.60;;
53646;SDS011;39550;52.230;5.194;2024-03-29T02:36:05;2.92;;;1.60;;
53646;SDS011;39550;52.230;5.194;2024-03-29T02:38:31;4.13;;;1.88;;
53646;SDS011;39550;52.230;5.194;2024-03-29T02:40:56;4.20;;;1.90;;
53646;SDS011;39550;52.230;5.194;2024-03-29T02:43:21;3.30;;;1.70;;
53646;SDS011;39550;52.230;5.194;2024-03-29T02:45:46;2.92;;;1.60;;
53646;SDS011;39550;52.230;5.194;2024-03-29T02:48:12;4.18;;;1.73;;
53646;SDS011;39550;52.230;5.194;2024-03-29T02:50:37;3.58;;;1.73;;
53646;SDS011;39550;52.230;5.194;2024-03-29T02:53:02;3.15;;;1.60;;
53646;SDS011;39550;52.230;5.194;2024-03-29T02:55:28;4.03;;;1.80;;
53646;SDS011;39550;52.230;5.194;2024-03-29T02:57:53;3.47;;;1.50;;
53646;SDS011;39550;52.230;5.194;2024-03-29T03:00:18;6.28;;;1.85;;
53646;SDS011;39550;52.230;5.194;2024-03-29T03:02:44;4.40;;;1.67;;
53646;SDS011;39550;52.230;5.194;2024-03-29T03:05:09;3.85;;;1.60;;
53646;SDS011;39550;52.230;5.194;2024-03-29T03:07:34;3.75;;;1.50;;
53646;SDS011;39550;52.230;5.194;2024-03-29T03:10:19;3.25;;;1.77;;
53646;SDS011;39550;52.230;5.194;2024-03-29T03:13:03;4.13;;;1.63;;
53646;SDS011;39550;52.230;5.194;2024-03-29T03:15:29;3.55;;;1.70;;
53646;SDS011;39550;52.230;5.194;2024-03-29T03:17:54;3.83;;;1.77;;
53646;SDS011;39550;52.230;5.194;2024-03-29T03:20:19;3.40;;;1.50;;
53646;SDS011;39550;52.230;5.194;2024-03-29T03:22:45;3.30;;;1.65;;
53646;SDS011;39550;52.230;5.194;2024-03-29T03:25:10;3.17;;;1.70;;
53646;SDS011;39550;52.230;5.194;2024-03-29T03:27:35;3.30;;;1.67;;
53646;SDS011;39550;52.230;5.194;2024-03-29T03:30:00;6.53;;;2.13;;
53646;SDS011;39550;52.230;5.194;2024-03-29T03:32:26;3.58;;;1.60;;
53646;SDS011;39550;52.230;5.194;2024-03-29T03:34:51;3.22;;;1.52;;
53646;SDS011;39550;52.230;5.194;2024-03-29T03:37:16;3.88;;;1.42;;
53646;SDS011;39550;52.230;5.194;2024-03-29T03:39:41;3.78;;;1.60;;
53646;SDS011;39550;52.230;5.194;2024-03-29T03:42:07;3.78;;;2.00;;
53646;SDS011;39550;52.230;5.194;2024-03-29T03:44:32;3.05;;;1.77;;
53646;SDS011;39550;52.230;5.194;2024-03-29T03:46:57;2.63;;;1.60;;
53646;SDS011;39550;52.230;5.194;2024-03-29T03:49:23;4.57;;;1.70;;
53646;SDS011;39550;52.230;5.194;2024-03-29T03:51:48;2.70;;;1.65;;
53646;SDS011;39550;52.230;5.194;2024-03-29T03:54:13;8.18;;;1.83;;
53646;SDS011;39550;52.230;5.194;2024-03-29T03:56:39;4.13;;;1.90;;
53646;SDS011;39550;52.230;5.194;2024-03-29T03:59:04;4.68;;;1.65;;
53646;SDS011;39550;52.230;5.194;2024-03-29T04:01:29;3.15;;;1.65;;
53646;SDS011;39550;52.230;5.194;2024-03-29T04:03:54;5.13;;;1.75;;
53646;SDS011;39550;52.230;5.194;2024-03-29T04:06:20;5.80;;;1.60;;
53646;SDS011;39550;52.230;5.194;2024-03-29T04:08:45;3.85;;;1.70;;
53646;SDS011;39550;52.230;5.194;2024-03-29T04:11:11;3.45;;;1.90;;
53646;SDS011;39550;52.230;5.194;2024-03-29T04:13:36;3.70;;;1.50;;
53646;SDS011;39550;52.230;5.194;2024-03-29T04:16:04;5.07;;;1.98;;
53646;SDS011;39550;52.230;5.194;2024-03-29T04:18:33;4.15;;;1.65;;
53646;SDS011;39550;52.230;5.194;2024-03-29T04:20:59;2.90;;;1.55;;
53646;SDS011;39550;52.230;5.194;2024-03-29T04:23:25;3.20;;;1.60;;
53646;SDS011;39550;52.230;5.194;2024-03-29T04:25:53;2.22;;;1.50;;
53646;SDS011;39550;52.230;5.194;2024-03-29T04:28:19;4.10;;;1.60;;
53646;SDS011;39550;52.230;5.194;2024-03-29T04:30:51;3.08;;;1.70;;
53646;SDS011;39550;52.230;5.194;2024-03-29T04:33:18;4.00;;;1.95;;
53646;SDS011;39550;52.230;5.194;2024-03-29T04:35:56;3.92;;;1.88;;
53646;SDS011;39550;52.230;5.194;2024-03-29T04:38:29;5.07;;;1.48;;
53646;SDS011;39550;52.230;5.194;2024-03-29T04:40:55;3.58;;;2.15;;
53646;SDS011;39550;52.230;5.194;2024-03-29T04:43:22;3.38;;;1.60;;
53646;SDS011;39550;52.230;5.194;2024-03-29T04:45:50;2.83;;;1.52;;
53646;SDS011;39550;52.230;5.194;2024-03-29T04:48:16;4.38;;;1.98;;
53646;SDS011;39550;52.230;5.194;2024-03-29T04:50:41;3.75;;;1.70;;
53646;SDS011;39550;52.230;5.194;2024-03-29T04:53:09;5.10;;;2.72;;
53646;SDS011;39550;52.230;5.194;2024-03-29T04:55:35;3.05;;;1.50;;
53646;SDS011;39550;52.230;5.194;2024-03-29T04:58:00;2.85;;;1.45;;
53646;SDS011;39550;52.230;5.194;2024-03-29T05:00:26;2.70;;;1.50;;
53646;SDS011;39550;52.230;5.194;2024-03-29T05:02:51;2.67;;;1.50;;
53646;SDS011;39550;52.230;5.194;2024-03-29T05:05:17;3.35;;;1.65;;
53646;SDS011;39550;52.230;5.194;2024-03-29T05:07:42;3.78;;;2.50;;
53646;SDS011;39550;52.230;5.194;2024-03-29T05:10:07;2.75;;;1.60;;
53646;SDS011;39550;52.230;5.194;2024-03-29T05:12:34;1.92;;;1.40;;
53646;SDS011;39550;52.230;5.194;2024-03-29T05:15:00;3.10;;;1.55;;
53646;SDS011;39550;52.230;5.194;2024-03-29T05:17:25;4.18;;;2.05;;
53646;SDS011;39550;52.230;5.194;2024-03-29T05:19:52;3.08;;;1.60;;
53646;SDS011;39550;52.230;5.194;2024-03-29T05:22:17;2.40;;;1.42;;
53646;SDS011;39550;52.230;5.194;2024-03-29T05:24:43;2.85;;;1.40;;
53646;SDS011;39550;52.230;5.194;2024-03-29T05:27:08;2.65;;;1.50;;
53646;SDS011;39550;52.230;5.194;2024-03-29T05:29:33;4.13;;;1.55;;
53646;SDS011;39550;52.230;5.194;2024-03-29T05:31:59;4.13;;;1.58;;
53646;SDS011;39550;52.230;5.194;2024-03-29T05:34:24;2.70;;;1.42;;
53646;SDS011;39550;52.230;5.194;2024-03-29T05:36:49;3.50;;;1.50;;
53646;SDS011;39550;52.230;5.194;2024-03-29T05:39:14;2.90;;;1.63;;
53646;SDS011;39550;52.230;5.194;2024-03-29T05:41:40;2.97;;;1.40;;
53646;SDS011;39550;52.230;5.194;2024-03-29T05:44:06;2.50;;;1.40;;
53646;SDS011;39550;52.230;5.194;2024-03-29T05:46:31;2.38;;;1.50;;
53646;SDS011;39550;52.230;5.194;2024-03-29T05:48:56;3.08;;;1.50;;
53646;SDS011;39550;52.230;5.194;2024-03-29T05:51:22;2.83;;;1.48;;
53646;SDS011;39550;52.230;5.194;2024-03-29T05:53:47;2.47;;;1.50;;
53646;SDS011;39550;52.230;5.194;2024-03-29T05:56:12;2.78;;;1.85;;
53646;SDS011;39550;52.230;5.194;2024-03-29T05:58:38;1.90;;;1.48;;
53646;SDS011;39550;52.230;5.194;2024-03-29T06:01:03;1.50;;;1.30;;
53646;SDS011;39550;52.230;5.194;2024-03-29T06:03:28;2.88;;;1.80;;
53646;SDS011;39550;52.230;5.194;2024-03-29T06:05:54;5.70;;;2.00;;
53646;SDS011;39550;52.230;5.194;2024-03-29T06:08:19;2.80;;;1.35;;
53646;SDS011;39550;52.230;5.194;2024-03-29T06:10:46;2.47;;;1.48;;
53646;SDS011;39550;52.230;5.194;2024-03-29T06:13:11;1.80;;;1.30;;
53646;SDS011;39550;52.230;5.194;2024-03-29T06:15:52;3.67;;;1.58;;
53646;SDS011;39550;52.230;5.194;2024-03-29T06:18:36;4.30;;;1.50;;
53646;SDS011;39550;52.230;5.194;2024-03-29T06:21:02;2.58;;;1.40;;
53646;SDS011;39550;52.230;5.194;2024-03-29T06:23:27;3.58;;;1.70;;
53646;SDS011;39550;52.230;5.194;2024-03-29T06:25:52;3.38;;;1.50;;
53646;SDS011;39550;52.230;5.194;2024-03-29T06:28:17;2.17;;;1.35;;
53646;SDS011;39550;52.230;5.194;2024-03-29T06:30:43;2.25;;;1.40;;
53646;SDS011;39550;52.230;5.194;2024-03-29T06:33:08;2.28;;;1.40;;
53646;SDS011;39550;52.230;5.194;2024-03-29T06:35:33;2.15;;;1.40;;
53646;SDS011;39550;52.230;5.194;2024-03-29T06:37:59;4.70;;;1.50;;
53646;SDS011;39550;52.230;5.194;2024-03-29T06:40:24;2.25;;;1.40;;
53646;SDS011;39550;52.230;5.194;2024-03-29T06:42:49;1.80;;;1.30;;
53646;SDS011;39550;52.230;5.194;2024-03-29T06:45:14;2.50;;;1.48;;
53646;SDS011;39550;52.230;5.194;2024-03-29T06:47:40;2.65;;;1.90;;
53646;SDS011;39550;52.230;5.194;2024-03-29T06:50:05;1.90;;;1.40;;
53646;SDS011;39550;52.230;5.194;2024-03-29T06:52:31;2.25;;;1.35;;
53646;SDS011;39550;52.230;5.194;2024-03-29T06:54:56;3.05;;;1.35;;
53646;SDS011;39550;52.230;5.194;2024-03-29T06:57:21;3.75;;;1.50;;
53646;SDS011;39550;52.230;5.194;2024-03-29T06:59:50;2.08;;;1.50;;
53646;SDS011;39550;52.230;5.194;2024-03-29T07:02:15;2.97;;;1.42;;
53646;SDS011;39550;52.230;5.194;2024-03-29T07:04:41;2.65;;;1.40;;
53646;SDS011;39550;52.230;5.194;2024-03-29T07:07:06;2.90;;;1.50;;
53646;SDS011;39550;52.230;5.194;2024-03-29T07:09:31;2.22;;;1.30;;
53646;SDS011;39550;52.230;5.194;2024-03-29T07:11:56;4.40;;;1.60;;
53646;SDS011;39550;52.230;5.194;2024-03-29T07:14:23;1.98;;;1.50;;
53646;SDS011;39550;52.230;5.194;2024-03-29T07:16:51;2.45;;;1.40;;
53646;SDS011;39550;52.230;5.194;2024-03-29T07:19:16;3.08;;;1.40;;
53646;SDS011;39550;52.230;5.194;2024-03-29T07:21:43;2.47;;;1.40;;
53646;SDS011;39550;52.230;5.194;2024-03-29T07:24:09;3.05;;;1.48;;
53646;SDS011;39550;52.230;5.194;2024-03-29T07:26:35;2.95;;;1.50;;
53646;SDS011;39550;52.230;5.194;2024-03-29T07:29:00;3.08;;;1.30;;
53646;SDS011;39550;52.230;5.194;2024-03-29T07:31:27;1.80;;;1.40;;
53646;SDS011;39550;52.230;5.194;2024-03-29T07:33:52;2.42;;;1.40;;
53646;SDS011;39550;52.230;5.194;2024-03-29T07:36:17;2.38;;;1.40;;
53646;SDS011;39550;52.230;5.194;2024-03-29T07:38:43;1.70;;;1.30;;
53646;SDS011;39550;52.230;5.194;2024-03-29T07:41:09;2.78;;;1.63;;
53646;SDS011;39550;52.230;5.194;2024-03-29T07:43:38;2.25;;;1.40;;
53646;SDS011;39550;52.230;5.194;2024-03-29T07:46:05;2.75;;;1.45;;
53646;SDS011;39550;52.230;5.194;2024-03-29T07:48:33;4.20;;;1.60;;
53646;SDS011;39550;52.230;5.194;2024-03-29T07:50:59;1.95;;;1.27;;
53646;SDS011;39550;52.230;5.194;2024-03-29T07:53:24;3.20;;;1.35;;
53646;SDS011;39550;52.230;5.194;2024-03-29T07:55:49;2.03;;;1.30;;
53646;SDS011;39550;52.230;5.194;2024-03-29T07:58:15;2.40;;;1.50;;
53646;SDS011;39550;52.230;5.194;2024-03-29T08:00:42;2.13;;;1.70;;
53646;SDS011;39550;52.230;5.194;2024-03-29T08:03:08;1.65;;;1.30;;
53646;SDS011;39550;52.230;5.194;2024-03-29T08:05:33;2.60;;;1.60;;
53646;SDS011;39550;52.230;5.194;2024-03-29T08:07:59;2.40;;;1.40;;
53646;SDS011;39550;52.230;5.194;2024-03-29T08:10:25;2.78;;;1.40;;
53646;SDS011;39550;52.230;5.194;2024-03-29T08:12:50;3.50;;;1.73;;
53646;SDS011;39550;52.230;5.194;2024-03-29T08:15:16;2.13;;;1.50;;
53646;SDS011;39550;52.230;5.194;2024-03-29T08:17:43;2.58;;;1.52;;
53646;SDS011;39550;52.230;5.194;2024-03-29T08:20:08;3.00;;;1.33;;
53646;SDS011;39550;52.230;5.194;2024-03-29T08:22:34;2.20;;;1.40;;
53646;SDS011;39550;52.230;5.194;2024-03-29T08:25:00;2.95;;;1.40;;
53646;SDS011;39550;52.230;5.194;2024-03-29T08:27:26;1.98;;;1.30;;
53646;SDS011;39550;52.230;5.194;2024-03-29T08:29:52;1.80;;;1.30;;
53646;SDS011;39550;52.230;5.194;2024-03-29T08:32:17;2.55;;;1.35;;
53646;SDS011;39550;52.230;5.194;2024-03-29T08:34:43;1.83;;;1.30;;
53646;SDS011;39550;52.230;5.194;2024-03-29T08:37:08;2.35;;;1.40;;
53646;SDS011;39550;52.230;5.194;2024-03-29T08:39:33;1.67;;;1.30;;
53646;SDS011;39550;52.230;5.194;2024-03-29T08:41:59;2.50;;;1.40;;
53646;SDS011;39550;52.230;5.194;2024-03-29T08:44:27;1.65;;;1.40;;
53646;SDS011;39550;52.230;5.194;2024-03-29T08:46:53;1.77;;;1.30;;
53646;SDS011;39550;52.230;5.194;2024-03-29T08:49:21;2.25;;;1.40;;
53646;SDS011;39550;52.230;5.194;2024-03-29T08:51:46;1.55;;;1.30;;
53646;SDS011;39550;52.230;5.194;2024-03-29T08:54:11;3.75;;;2.13;;
53646;SDS011;39550;52.230;5.194;2024-03-29T08:56:36;2.15;;;1.40;;
53646;SDS011;39550;52.230;5.194;2024-03-29T08:59:02;2.47;;;1.30;;
53646;SDS011;39550;52.230;5.194;2024-03-29T09:01:32;3.50;;;1.45;;
53646;SDS011;39550;52.230;5.194;2024-03-29T09:04:01;2.00;;;1.30;;
53646;SDS011;39550;52.230;5.194;2024-03-29T09:06:29;3.88;;;1.55;;
53646;SDS011;39550;52.230;5.194;2024-03-29T09:08:54;2.53;;;1.50;;
53646;SDS011;39550;52.230;5.194;2024-03-29T09:11:20;2.17;;;1.40;;
53646;SDS011;39550;52.230;5.194;2024-03-29T09:13:45;2.25;;;1.45;;
53646;SDS011;39550;52.230;5.194;2024-03-29T09:16:10;2.47;;;1.50;;
53646;SDS011;39550;52.230;5.194;2024-03-29T09:18:36;1.58;;;1.30;;
53646;SDS011;39550;52.230;5.194;2024-03-29T09:21:01;1.30;;;1.20;;
53646;SDS011;39550;52.230;5.194;2024-03-29T09:23:26;1.88;;;1.45;;
53646;SDS011;39550;52.230;5.194;2024-03-29T09:25:55;1.87;;;1.40;;
53646;SDS011;39550;52.230;5.194;2024-03-29T09:28:22;1.88;;;1.30;;
53646;SDS011;39550;52.230;5.194;2024-03-29T09:30:48;4.72;;;1.40;;
53646;SDS011;39550;52.230;5.194;2024-03-29T09:33:13;2.22;;;1.40;;
53646;SDS011;39550;52.230;5.194;2024-03-29T09:35:38;2.75;;;1.50;;
53646;SDS011;39550;52.230;5.194;2024-03-29T09:38:04;1.77;;;1.33;;
53646;SDS011;39550;52.230;5.194;2024-03-29T09:40:29;2.35;;;1.33;;
53646;SDS011;39550;52.230;5.194;2024-03-29T09:42:57;2.53;;;1.40;;
53646;SDS011;39550;52.230;5.194;2024-03-29T09:45:28;1.45;;;1.20;;
53646;SDS011;39550;52.230;5.194;2024-03-29T09:47:58;2.42;;;1.45;;
53646;SDS011;39550;52.230;5.194;2024-03-29T09:50:26;2.67;;;1.40;;
53646;SDS011;39550;52.230;5.194;2024-03-29T09:52:51;2.35;;;1.42;;
53646;SDS011;39550;52.230;5.194;2024-03-29T09:55:18;2.55;;;1.45;;
53646;SDS011;39550;52.230;5.194;2024-03-29T09:57:45;2.05;;;1.42;;
53646;SDS011;39550;52.230;5.194;2024-03-29T10:00:10;1.30;;;1.20;;
53646;SDS011;39550;52.230;5.194;2024-03-29T10:02:36;2.08;;;1.30;;
53646;SDS011;39550;52.230;5.194;2024-03-29T10:05:02;2.17;;;1.35;;
53646;SDS011;39550;52.230;5.194;2024-03-29T10:07:31;2.67;;;1.30;;
53646;SDS011;39550;52.230;5.194;2024-03-29T10:09:59;3.10;;;1.40;;
53646;SDS011;39550;52.230;5.194;2024-03-29T10:12:25;2.17;;;1.30;;
53646;SDS011;39550;52.230;5.194;2024-03-29T10:14:52;2.00;;;1.40;;
53646;SDS011;39550;52.230;5.194;2024-03-29T10:17:20;1.38;;;1.20;;
53646;SDS011;39550;52.230;5.194;2024-03-29T10:19:45;4.00;;;1.58;;
53646;SDS011;39550;52.230;5.194;2024-03-29T10:22:12;2.47;;;1.45;;
53646;SDS011;39550;52.230;5.194;2024-03-29T10:24:37;1.60;;;1.38;;
53646;SDS011;39550;52.230;5.194;2024-03-29T10:27:03;2.20;;;1.42;;
53646;SDS011;39550;52.230;5.194;2024-03-29T10:29:29;2.08;;;1.30;;
53646;SDS011;39550;52.230;5.194;2024-03-29T10:31:55;2.58;;;1.75;;
53646;SDS011;39550;52.230;5.194;2024-03-29T10:34:20;2.95;;;1.60;;
53646;SDS011;39550;52.230;5.194;2024-03-29T10:36:49;2.50;;;1.40;;
53646;SDS011;39550;52.230;5.194;2024-03-29T10:39:18;2.55;;;1.50;;
53646;SDS011;39550;52.230;5.194;2024-03-29T10:41:45;2.03;;;1.40;;
53646;SDS011;39550;52.230;5.194;2024-03-29T10:44:12;2.08;;;1.50;;
53646;SDS011;39550;52.230;5.194;2024-03-29T10:46:39;2.03;;;1.30;;
53646;SDS011;39550;52.230;5.194;2024-03-29T10:49:06;2.45;;;1.63;;
53646;SDS011;39550;52.230;5.194;2024-03-29T10:51:34;2.03;;;1.40;;
53646;SDS011;39550;52.230;5.194;2024-03-29T10:54:03;3.22;;;1.40;;
53646;SDS011;39550;52.230;5.194;2024-03-29T10:56:29;3.00;;;1.40;;
53646;SDS011;39550;52.230;5.194;2024-03-29T10:58:56;2.58;;;1.60;;
53646;SDS011;39550;52.230;5.194;2024-03-29T11:01:26;3.63;;;1.50;;
53646;SDS011;39550;52.230;5.194;2024-03-29T11:03:58;3.83;;;1.80;;
53646;SDS011;39550;52.230;5.194;2024-03-29T11:06:29;3.20;;;1.70;;
53646;SDS011;39550;52.230;5.194;2024-03-29T11:08:56;2.67;;;1.50;;
53646;SDS011;39550;52.230;5.194;2024-03-29T11:11:24;2.65;;;1.60;;
53646;SDS011;39550;52.230;5.194;2024-03-29T11:13:58;3.10;;;1.60;;
53646;SDS011;39550;52.230;5.194;2024-03-29T11:16:29;2.55;;;1.50;;
53646;SDS011;39550;52.230;5.194;2024-03-29T11:18:54;2.75;;;1.48;;
53646;SDS011;39550;52.230;5.194;2024-03-29T11:21:19;2.75;;;1.67;;
53646;SDS011;39550;52.230;5.194;2024-03-29T11:23:49;2.95;;;1.58;;
53646;SDS011;39550;52.230;5.194;2024-03-29T11:26:17;3.00;;;1.70;;
53646;SDS011;39550;52.230;5.194;2024-03-29T11:28:48;3.53;;;1.70;;
53646;SDS011;39550;52.230;5.194;2024-03-29T11:31:14;3.35;;;1.73;;
53646;SDS011;39550;52.230;5.194;2024-03-29T11:36:22;3.63;;;1.70;;
53646;SDS011;39550;52.230;5.194;2024-03-29T11:38:50;3.92;;;1.60;;
53646;SDS011;39550;52.230;5.194;2024-03-29T11:41:22;2.78;;;1.77;;
53646;SDS011;39550;52.230;5.194;2024-03-29T11:43:58;3.53;;;1.60;;
53646;SDS011;39550;52.230;5.194;2024-03-29T11:46:24;3.45;;;1.60;;
53646;SDS011;39550;52.230;5.194;2024-03-29T11:48:50;2.80;;;1.60;;
53646;SDS011;39550;52.230;5.194;2024-03-29T11:51:18;5.90;;;1.70;;
53646;SDS011;39550;52.230;5.194;2024-03-29T11:56:12;4.45;;;1.60;;
53646;SDS011;39550;52.230;5.194;2024-03-29T11:58:38;2.72;;;1.60;;
53646;SDS011;39550;52.230;5.194;2024-03-29T12:01:06;3.90;;;1.90;;
53646;SDS011;39550;52.230;5.194;2024-03-29T12:03:39;3.33;;;1.70;;
53646;SDS011;39550;52.230;5.194;2024-03-29T12:06:05;3.88;;;1.83;;
53646;SDS011;39550;52.230;5.194;2024-03-29T12:08:34;2.72;;;1.60;;
53646;SDS011;39550;52.230;5.194;2024-03-29T12:11:03;3.08;;;1.85;;
53646;SDS011;39550;52.230;5.194;2024-03-29T12:13:28;2.90;;;1.77;;
53646;SDS011;39550;52.230;5.194;2024-03-29T12:15:54;2.90;;;1.65;;
53646;SDS011;39550;52.230;5.194;2024-03-29T12:18:20;3.47;;;1.98;;
53646;SDS011;39550;52.230;5.194;2024-03-29T12:20:47;7.75;;;2.08;;
53646;SDS011;39550;52.230;5.194;2024-03-29T12:23:20;3.58;;;1.90;;
53646;SDS011;39550;52.230;5.194;2024-03-29T12:25:47;3.97;;;2.00;;
53646;SDS011;39550;52.230;5.194;2024-03-29T12:28:14;3.65;;;2.00;;
53646;SDS011;39550;52.230;5.194;2024-03-29T12:30:41;3.70;;;1.88;;
53646;SDS011;39550;52.230;5.194;2024-03-29T12:33:11;3.65;;;2.10;;
53646;SDS011;39550;52.230;5.194;2024-03-29T12:35:43;3.90;;;2.20;;
53646;SDS011;39550;52.230;5.194;2024-03-29T12:38:10;4.38;;;2.40;;
53646;SDS011;39550;52.230;5.194;2024-03-29T12:40:37;3.85;;;2.10;;
53646;SDS011;39550;52.230;5.194;2024-03-29T12:43:05;3.50;;;2.00;;
53646;SDS011;39550;52.230;5.194;2024-03-29T12:45:31;4.22;;;2.40;;
53646;SDS011;39550;52.230;5.194;2024-03-29T12:47:57;4.78;;;2.42;;
53646;SDS011;39550;52.230;5.194;2024-03-29T12:52:47;4.90;;;2.33;;
53646;SDS011;39550;52.230;5.194;2024-03-29T12:55:13;4.15;;;2.38;;
53646;SDS011;39550;52.230;5.194;2024-03-29T12:57:38;4.03;;;2.65;;
53646;SDS011;39550;52.230;5.194;2024-03-29T13:00:06;3.85;;;2.20;;
53646;SDS011;39550;52.230;5.194;2024-03-29T13:02:34;4.85;;;2.40;;
53646;SDS011;39550;52.230;5.194;2024-03-29T13:05:03;4.70;;;2.40;;
53646;SDS011;39550;52.230;5.194;2024-03-29T13:07:29;4.32;;;2.50;;
53646;SDS011;39550;52.230;5.194;2024-03-29T13:09:55;3.95;;;2.28;;
53646;SDS011;39550;52.230;5.194;2024-03-29T13:12:20;4.35;;;2.60;;
53646;SDS011;39550;52.230;5.194;2024-03-29T13:14:46;3.90;;;2.50;;
53646;SDS011;39550;52.230;5.194;2024-03-29T13:17:11;4.47;;;2.60;;
53646;SDS011;39550;52.230;5.194;2024-03-29T13:19:36;4.25;;;2.40;;
53646;SDS011;39550;52.230;5.194;2024-03-29T13:22:02;4.40;;;2.50;;
53646;SDS011;39550;52.230;5.194;2024-03-29T13:24:27;4.55;;;2.50;;
53646;SDS011;39550;52.230;5.194;2024-03-29T13:26:54;5.20;;;2.60;;
53646;SDS011;39550;52.230;5.194;2024-03-29T13:29:19;4.53;;;2.45;;
53646;SDS011;39550;52.230;5.194;2024-03-29T13:31:45;4.00;;;2.50;;
53646;SDS011;39550;52.230;5.194;2024-03-29T13:34:11;5.10;;;2.70;;
53646;SDS011;39550;52.230;5.194;2024-03-29T13:36:39;5.20;;;2.50;;
53646;SDS011;39550;52.230;5.194;2024-03-29T13:39:05;4.28;;;2.78;;
53646;SDS011;39550;52.230;5.194;2024-03-29T13:41:32;4.13;;;2.30;;
53646;SDS011;39550;52.230;5.194;2024-03-29T13:43:58;4.40;;;2.63;;
53646;SDS011;39550;52.230;5.194;2024-03-29T13:46:24;4.63;;;2.67;;
53646;SDS011;39550;52.230;5.194;2024-03-29T13:48:50;4.07;;;2.53;;
53646;SDS011;39550;52.230;5.194;2024-03-29T13:51:15;5.88;;;2.78;;
53646;SDS011;39550;52.230;5.194;2024-03-29T13:53:41;4.30;;;2.50;;
53646;SDS011;39550;52.230;5.194;2024-03-29T13:56:07;4.40;;;2.88;;
53646;SDS011;39550;52.230;5.194;2024-03-29T13:58:32;4.10;;;2.58;;
53646;SDS011;39550;52.230;5.194;2024-03-29T14:00:58;5.22;;;2.88;;
53646;SDS011;39550;52.230;5.194;2024-03-29T14:03:25;5.63;;;2.70;;
53646;SDS011;39550;52.230;5.194;2024-03-29T14:05:50;4.25;;;2.42;;
53646;SDS011;39550;52.230;5.194;2024-03-29T14:08:16;4.75;;;3.10;;
53646;SDS011;39550;52.230;5.194;2024-03-29T14:10:41;4.80;;;2.70;;
53646;SDS011;39550;52.230;5.194;2024-03-29T14:13:07;4.60;;;3.20;;
53646;SDS011;39550;52.230;5.194;2024-03-29T14:15:34;4.57;;;3.00;;
53646;SDS011;39550;52.230;5.194;2024-03-29T14:17:59;5.25;;;2.90;;
53646;SDS011;39550;52.230;5.194;2024-03-29T14:20:24;4.70;;;2.78;;
53646;SDS011;39550;52.230;5.194;2024-03-29T14:22:50;4.00;;;2.50;;
53646;SDS011;39550;52.230;5.194;2024-03-29T14:25:19;4.72;;;2.80;;
53646;SDS011;39550;52.230;5.194;2024-03-29T14:27:45;5.88;;;3.05;;
53646;SDS011;39550;52.230;5.194;2024-03-29T14:30:19;5.00;;;2.92;;
53646;SDS011;39550;52.230;5.194;2024-03-29T14:32:46;4.82;;;2.92;;
53646;SDS011;39550;52.230;5.194;2024-03-29T14:35:12;4.10;;;2.72;;
53646;SDS011;39550;52.230;5.194;2024-03-29T14:37:39;5.00;;;3.10;;
53646;SDS011;39550;52.230;5.194;2024-03-29T14:40:05;3.97;;;2.50;;
53646;SDS011;39550;52.230;5.194;2024-03-29T14:42:30;5.50;;;3.05;;
53646;SDS011;39550;52.230;5.194;2024-03-29T14:44:55;5.22;;;3.10;;
53646;SDS011;39550;52.230;5.194;2024-03-29T14:47:22;5.70;;;3.08;;
53646;SDS011;39550;52.230;5.194;2024-03-29T14:49:47;4.43;;;2.90;;